Time;durP1;ratioP1;P1;durP2;ratioP2;P2;SDS_P1;SDS_P2;PMS_P1;PMS_P2;Temp;Humidity;BMP_temperature;BMP_pressure;BME280_temperature;BME280_humidity;BME280_pressure;Samples;Min_cycle;Max_cycle;Signal;HPM_P1;HPM_P2
2022/07/04 00:00:10;;;;;;;;;2.00;2.00;;;;;17.79;100.00;101735.00;5030629;28;45377;-86
2022/07/04 00:02:38;;;;;;;;;1.20;1.20;;;;;17.82;100.00;101740.13;5008746;28;46732;-87
2022/07/04 00:05:04;;;;;;;;;5.00;2.00;;;;;17.78;100.00;101727.91;5022872;28;44619;-87
2022/07/04 00:07:30;;;;;;;;;1.00;1.00;;;;;17.69;100.00;101739.38;5031773;28;44659;-87
2022/07/04 00:10:00;;;;;;;;;0.00;0.00;;;;;17.69;100.00;101732.16;5022839;28;44883;-87
2022/07/04 00:12:26;;;;;;;;;2.40;2.00;;;;;17.68;100.00;101754.66;5039405;28;45198;-87
2022/07/04 00:14:54;;;;;;;;;3.50;2.25;;;;;17.67;100.00;101754.78;5039862;28;45299;-86
2022/07/04 00:17:19;;;;;;;;;1.20;1.00;;;;;17.52;100.00;101742.59;5025194;28;44844;-86
2022/07/04 00:19:45;;;;;;;;;1.00;1.00;;;;;17.41;100.00;101747.00;5042283;28;44869;-87
2022/07/04 00:22:12;;;;;;;;;1.00;1.00;;;;;17.37;100.00;101747.34;5044906;28;44968;-87
2022/07/04 00:24:37;;;;;;;;;4.00;2.00;;;;;17.36;100.00;101754.56;5031309;28;44775;-88
2022/07/04 00:27:03;;;;;;;;;2.25;2.00;;;;;17.33;100.00;101760.16;5031352;28;45334;-87
2022/07/04 00:29:35;;;;;;;;;2.00;2.00;;;;;17.32;100.00;101758.47;5039842;28;44826;-87
2022/07/04 00:32:01;;;;;;;;;3.00;2.00;;;;;17.32;100.00;101765.69;5042121;28;45782;-86
2022/07/04 00:34:27;;;;;;;;;3.75;3.75;;;;;17.26;100.00;101760.75;5022371;28;45486;-87
2022/07/04 00:36:53;;;;;;;;;3.60;2.60;;;;;17.19;100.00;101758.56;5040447;28;44788;-87
2022/07/04 00:39:18;;;;;;;;;3.50;2.00;;;;;17.24;100.00;101770.78;5026215;28;45434;-87
2022/07/04 00:41:44;;;;;;;;;3.25;3.25;;;;;17.15;100.00;101758.94;5043249;28;45493;-87
2022/07/04 00:44:12;;;;;;;;;6.00;4.00;;;;;17.17;100.00;101759.69;5040323;28;45546;-86
2022/07/04 00:46:37;;;;;;;;;3.00;3.00;;;;;17.15;100.00;101764.28;5040802;28;44766;-87
2022/07/04 00:49:07;;;;;;;;;5.00;3.00;;;;;17.13;100.00;101763.56;5038869;28;44798;-87
2022/07/04 00:51:36;;;;;;;;;6.00;4.60;;;;;17.07;100.00;101756.88;5025268;28;47058;-87
2022/07/04 00:54:08;;;;;;;;;5.20;4.00;;;;;17.12;100.00;101770.78;5044664;28;44945;-87
2022/07/04 00:56:39;;;;;;;;;7.80;2.40;;;;;17.04;100.00;101758.91;5031244;28;44761;-87
2022/07/04 00:59:06;;;;;;;;;3.00;2.00;;;;;17.01;100.00;101762.69;5026659;28;45413;-87
2022/07/04 01:01:33;;;;;;;;;2.80;2.20;;;;;16.98;100.00;101754.03;5021704;28;45237;-87
2022/07/04 01:03:59;;;;;;;;;6.20;2.00;;;;;16.91;100.00;101749.13;5040027;28;44813;-86
2022/07/04 01:06:24;;;;;;;;;4.75;3.00;;;;;16.89;100.00;101763.66;5041462;28;44922;-87
2022/07/04 01:08:53;;;;;;;;;3.75;3.50;;;;;16.91;100.00;101765.22;5039221;28;45522;-87
2022/07/04 01:11:19;;;;;;;;;2.00;2.00;;;;;16.89;100.00;101761.81;5007293;28;45304;-87
2022/07/04 01:13:53;;;;;;;;;2.00;1.00;;;;;16.86;100.00;101758.50;5009189;28;45397;-87
2022/07/04 01:16:18;;;;;;;;;1.80;1.80;;;;;16.89;100.00;101759.13;5004500;28;44867;-88
2022/07/04 01:18:48;;;;;;;;;2.25;2.00;;;;;16.86;100.00;101772.78;5004849;28;44882;-88
2022/07/04 01:21:17;;;;;;;;;2.00;0.40;;;;;16.87;100.00;101774.47;5037904;28;44972;-87
2022/07/04 01:23:48;;;;;;;;;2.00;2.00;;;;;16.82;100.00;101768.63;5018067;28;44813;-86
2022/07/04 01:26:18;;;;;;;;;1.60;1.60;;;;;16.78;100.00;101752.88;5000371;28;44696;-87
2022/07/04 01:28:44;;;;;;;;;3.80;3.40;;;;;16.85;100.00;101770.22;5022439;28;44763;-87
2022/07/04 01:31:15;;;;;;;;;4.00;2.00;;;;;16.79;100.00;101758.13;5021823;28;45332;-88
2022/07/04 01:33:41;;;;;;;;;1.20;1.20;;;;;16.81;100.00;101758.00;5019373;28;44719;-86
2022/07/04 01:36:06;;;;;;;;;2.25;0.50;;;;;16.77;100.00;101757.38;5018339;28;45213;-87
2022/07/04 01:38:32;;;;;;;;;1.75;1.75;;;;;16.72;100.00;101756.88;5017901;28;44895;-87
2022/07/04 01:40:58;;;;;;;;;2.00;2.00;;;;;16.76;100.00;101761.03;5038887;28;45362;-86
2022/07/04 01:43:23;;;;;;;;;2.00;2.00;;;;;16.67;100.00;101754.50;5037078;28;44690;-87
2022/07/04 01:45:50;;;;;;;;;2.25;2.25;;;;;16.69;100.00;101747.22;5022246;28;45249;-87
2022/07/04 01:48:16;;;;;;;;;2.60;2.00;;;;;16.63;100.00;101745.00;5038875;28;45395;-87
2022/07/04 01:50:41;;;;;;;;;1.00;1.00;;;;;16.61;100.00;101740.72;5038875;28;45091;-87
2022/07/04 01:53:09;;;;;;;;;1.00;1.00;;;;;16.65;100.00;101750.25;5046748;28;44779;-86
2022/07/04 01:55:37;;;;;;;;;1.80;1.80;;;;;16.60;100.00;101753.28;5051879;28;44764;-86
2022/07/04 01:58:03;;;;;;;;;2.00;2.00;;;;;16.66;100.00;101751.97;5032209;28;44934;-86
2022/07/04 02:03:16;;;;;;;;;1.00;1.00;;;;;16.63;100.00;101750.38;5050422;28;44885;-87
2022/07/04 02:05:43;;;;;;;;;0.75;0.00;;;;;16.57;100.00;101736.56;5026626;28;44919;-86
2022/07/04 02:08:10;;;;;;;;;1.00;1.00;;;;;16.58;100.00;101739.13;5034726;28;45611;-87
2022/07/04 02:10:35;;;;;;;;;1.00;1.00;;;;;16.58;100.00;101752.53;5023878;28;45340;-87
2022/07/04 02:13:02;;;;;;;;;0.00;0.00;;;;;16.54;100.00;101740.34;5020235;28;45104;-86
2022/07/04 02:15:38;;;;;;;;;0.00;0.00;;;;;16.54;100.00;101743.03;5036334;28;45467;-89
2022/07/04 02:18:06;;;;;;;;;0.00;0.00;;;;;16.55;100.00;101750.09;5038859;28;44922;-88
2022/07/04 02:20:33;;;;;;;;;1.20;1.20;;;;;16.53;100.00;101753.84;5025193;28;45413;-88
2022/07/04 02:22:59;;;;;;;;;0.60;0.60;;;;;16.46;100.00;101750.78;5021702;28;44802;-89
2022/07/04 02:25:25;;;;;;;;;2.25;1.00;;;;;16.44;100.00;101748.22;5002737;28;44855;-89
2022/07/04 02:27:51;;;;;;;;;0.00;0.00;;;;;16.49;100.00;101757.72;4998874;28;44888;-84
2022/07/04 02:30:21;;;;;;;;;1.00;1.00;;;;;16.43;100.00;101754.53;5018999;28;45340;-88
2022/07/04 02:32:46;;;;;;;;;0.80;0.20;;;;;16.40;100.00;101743.22;5004223;28;44756;-88
2022/07/04 02:35:12;;;;;;;;;1.75;0.75;;;;;16.40;100.00;101751.25;5022277;28;45253;-88
2022/07/04 02:37:39;;;;;;;;;2.00;0.25;;;;;16.37;100.00;101743.44;5035676;28;44898;-89
2022/07/04 02:40:06;;;;;;;;;1.00;1.00;;;;;16.34;100.00;101746.34;5013816;28;46969;-88
2022/07/04 02:42:33;;;;;;;;;1.00;1.00;;;;;16.31;100.00;101758.16;5042367;28;44708;-89
2022/07/04 02:44:59;;;;;;;;;2.00;0.40;;;;;16.29;100.00;101748.50;5024243;28;45176;-89
2022/07/04 02:47:25;;;;;;;;;0.00;0.00;;;;;16.26;100.00;101749.63;5026613;28;44952;-88
2022/07/04 02:49:53;;;;;;;;;2.00;0.60;;;;;16.21;100.00;101751.78;5052754;28;45287;-88
2022/07/04 02:52:19;;;;;;;;;0.80;0.80;;;;;16.27;100.00;101762.03;5054308;28;44766;-89
2022/07/04 02:54:46;;;;;;;;;0.50;0.00;;;;;16.23;100.00;101762.38;5041947;28;44687;-89
2022/07/04 02:57:12;;;;;;;;;0.80;0.80;;;;;16.23;100.00;101763.22;5039895;28;44884;-89
2022/07/04 02:59:38;;;;;;;;;0.80;0.80;;;;;16.14;100.00;101756.72;5040278;28;45257;-89
2022/07/04 03:02:04;;;;;;;;;1.50;1.00;;;;;16.19;100.00;101773.31;5021511;28;45329;-90
2022/07/04 03:04:29;;;;;;;;;2.40;1.00;;;;;16.12;100.00;101755.16;5043851;28;44639;-87
2022/07/04 03:06:55;;;;;;;;;0.00;0.00;;;;;16.14;100.00;101766.59;5027549;28;44845;-86
2022/07/04 03:09:20;;;;;;;;;0.00;0.00;;;;;16.07;100.00;101750.13;5048449;28;45760;-87
2022/07/04 03:11:47;;;;;;;;;1.00;0.00;;;;;16.10;100.00;101762.44;5044791;28;45498;-87
2022/07/04 03:14:13;;;;;;;;;0.80;0.80;;;;;16.09;100.00;101769.63;5041835;28;45422;-88
2022/07/04 03:16:38;;;;;;;;;1.50;1.00;;;;;16.11;100.00;101772.19;5023172;28;44792;-87
2022/07/04 03:19:04;;;;;;;;;1.00;1.00;;;;;16.08;100.00;101762.53;5040794;28;45511;-87
2022/07/04 03:21:30;;;;;;;;;1.00;1.00;;;;;16.08;100.00;101767.91;5023042;28;45493;-87
2022/07/04 03:23:58;;;;;;;;;2.00;1.00;;;;;16.11;100.00;101785.59;5042088;28;44770;-86
2022/07/04 03:26:32;;;;;;;;;1.60;0.60;;;;;16.10;100.00;101781.19;5043007;28;45175;-88
2022/07/04 03:29:00;;;;;;;;;0.40;0.40;;;;;16.06;100.00;101774.38;5025627;28;45202;-88
2022/07/04 03:31:26;;;;;;;;;1.00;1.00;;;;;16.02;100.00;101767.50;5008333;28;45492;-88
2022/07/04 03:34:12;;;;;;;;;0.00;0.00;;;;;16.03;100.00;101775.44;5045590;28;45312;-87
2022/07/04 03:36:37;;;;;;;;;1.00;1.00;;;;;16.00;100.00;101778.31;5047712;28;45255;-87
2022/07/04 03:39:02;;;;;;;;;2.50;1.00;;;;;15.98;100.00;101780.28;5047197;28;45477;-87
2022/07/04 03:41:28;;;;;;;;;0.25;0.25;;;;;15.95;100.00;101772.44;5047414;28;45418;-87
2022/07/04 03:43:54;;;;;;;;;1.00;0.00;;;;;15.96;100.00;101773.34;5046864;28;45319;-87
2022/07/04 03:46:19;;;;;;;;;0.00;0.00;;;;;15.93;100.00;101769.03;5034744;28;45007;-87
2022/07/04 03:48:45;;;;;;;;;1.00;1.00;;;;;15.95;100.00;101767.09;5037089;28;47355;-86
2022/07/04 03:51:12;;;;;;;;;0.75;0.75;;;;;15.89;100.00;101756.81;5028947;28;44673;-87
2022/07/04 03:53:37;;;;;;;;;1.00;1.00;;;;;15.96;100.00;101767.97;5023452;28;44683;-87
2022/07/04 03:56:06;;;;;;;;;1.00;1.00;;;;;15.93;100.00;101769.03;5024489;28;45305;-86
2022/07/04 03:58:31;;;;;;;;;1.00;1.00;;;;;15.91;100.00;101765.63;5047491;28;45548;-87
2022/07/04 04:00:58;;;;;;;;;0.00;0.00;;;;;15.88;100.00;101755.97;5033675;28;45292;-86
2022/07/04 04:06:07;;;;;;;;;1.00;1.00;;;;;15.98;100.00;101771.38;5044546;28;45431;-87
2022/07/04 04:08:34;;;;;;;;;2.00;2.00;;;;;15.98;100.00;101771.38;5045036;28;45703;-87
2022/07/04 04:10:59;;;;;;;;;0.80;0.80;;;;;16.05;100.00;101775.31;5029551;28;44709;-86
2022/07/04 04:13:27;;;;;;;;;0.50;0.50;;;;;16.18;100.00;101779.66;5055900;28;44973;-86
2022/07/04 04:15:55;;;;;;;;;2.00;0.00;;;;;16.16;100.00;101773.56;5055952;28;44836;-86
2022/07/04 04:18:21;;;;;;;;;1.00;1.00;;;;;16.17;100.00;101774.41;5056102;28;45418;-86
2022/07/04 04:20:46;;;;;;;;;3.00;1.00;;;;;16.32;100.00;101784.00;5046649;28;45374;-87
2022/07/04 04:23:11;;;;;;;;;1.25;1.25;;;;;16.31;100.00;101789.50;5043561;28;44753;-86
2022/07/04 04:25:37;;;;;;;;;0.50;0.50;;;;;16.32;100.00;101786.69;5046321;28;44789;-87
2022/07/04 04:28:02;;;;;;;;;0.00;0.00;;;;;16.41;100.00;101786.00;5049364;28;45265;-86
2022/07/04 04:30:28;;;;;;;;;1.00;1.00;;;;;16.54;100.00;101804.72;5048951;28;44751;-87
2022/07/04 04:32:53;;;;;;;;;1.00;1.00;;;;;16.59;100.00;101807.91;5043430;28;45293;-87
2022/07/04 04:35:19;;;;;;;;;2.75;1.50;;;;;16.59;100.00;101789.13;5043742;28;45278;-88
2022/07/04 04:37:44;;;;;;;;;1.00;1.00;;;;;16.63;100.00;101782.56;5042299;28;45315;-87
2022/07/04 04:40:10;;;;;;;;;5.00;1.00;;;;;16.80;100.00;101785.81;5048007;28;45301;-87
2022/07/04 04:42:37;;;;;;;;;1.00;1.00;;;;;16.93;100.00;101784.78;5053689;28;45222;-87
2022/07/04 04:45:04;;;;;;;;;2.80;1.00;;;;;17.08;100.00;101789.94;5050874;28;45363;-86
2022/07/04 04:47:29;;;;;;;;;0.00;0.00;;;;;17.12;100.00;101789.56;5029609;28;45366;-88
2022/07/04 04:49:55;;;;;;;;;1.00;1.00;;;;;17.18;100.00;101791.78;5046071;28;44682;-87
2022/07/04 04:52:21;;;;;;;;;1.00;1.00;;;;;17.33;100.00;101796.91;5043936;28;45332;-87
2022/07/04 04:54:46;;;;;;;;;0.00;0.00;;;;;17.39;100.00;101783.84;5024168;28;44873;-86
2022/07/04 04:57:12;;;;;;;;;1.00;1.00;;;;;17.44;100.00;101794.25;5033935;28;45322;-87
2022/07/04 04:59:37;;;;;;;;;4.75;2.00;;;;;17.34;100.00;101798.63;5053463;28;44852;-87
2022/07/04 05:02:03;;;;;;;;;2.00;2.00;;;;;17.37;100.00;101793.03;5049003;28;45328;-87
2022/07/04 05:04:29;;;;;;;;;1.00;1.00;;;;;17.50;100.00;101787.50;5028896;28;44831;-87
2022/07/04 05:06:54;;;;;;;;;1.25;1.25;;;;;17.57;100.00;101789.59;5026765;28;45516;-88
2022/07/04 05:09:21;;;;;;;;;2.00;2.00;;;;;17.72;100.00;101792.91;5029900;28;44774;-88
2022/07/04 05:11:47;;;;;;;;;2.20;2.20;;;;;17.84;100.00;101783.91;5044706;28;44819;-87
2022/07/04 05:14:23;;;;;;;;;2.00;2.00;;;;;17.86;100.00;101789.13;5027098;28;44941;-87
2022/07/04 05:16:50;;;;;;;;;2.20;2.20;;;;;17.93;100.00;101791.19;5034022;28;46788;-88
2022/07/04 05:19:18;;;;;;;;;2.20;2.20;;;;;18.11;100.00;101799.59;5053995;28;44663;-87
2022/07/04 05:21:43;;;;;;;;;2.80;2.00;;;;;18.03;100.00;101790.44;5046587;28;45432;-88
2022/07/04 05:24:12;;;;;;;;;3.00;3.00;;;;;18.08;100.00;101783.69;5026704;28;45048;-88
2022/07/04 05:26:40;;;;;;;;;3.00;3.00;;;;;18.00;100.00;101777.25;5042157;28;47281;-88
2022/07/04 05:29:07;;;;;;;;;5.80;5.00;;;;;18.12;100.00;101787.00;5028516;28;45533;-88
2022/07/04 05:31:32;;;;;;;;;4.20;3.00;;;;;18.24;100.00;101784.16;5046768;28;44771;-88
2022/07/04 05:34:00;;;;;;;;;3.00;3.00;;;;;18.21;100.00;101787.09;5029059;28;44971;-87
2022/07/04 05:36:27;;;;;;;;;3.40;2.00;;;;;18.30;100.00;101780.09;5044939;28;45508;-87
2022/07/04 05:38:52;;;;;;;;;3.20;2.40;;;;;18.33;100.00;101781.72;5042183;28;45138;-87
2022/07/04 05:41:18;;;;;;;;;6.50;3.00;;;;;18.36;100.00;101787.66;5043813;28;44741;-88
2022/07/04 05:43:44;;;;;;;;;1.50;1.50;;;;;18.63;100.00;101800.66;5025229;28;45292;-87
2022/07/04 05:46:12;;;;;;;;;3.00;2.00;;;;;18.91;100.00;101793.84;5023546;28;45235;-88
2022/07/04 05:48:37;;;;;;;;;3.20;3.20;;;;;19.26;100.00;101790.78;5041069;28;44809;-88
2022/07/04 05:51:03;;;;;;;;;1.75;1.75;;;;;19.45;100.00;101794.56;5023365;28;44801;-88
2022/07/04 05:53:29;;;;;;;;;2.00;2.00;;;;;19.54;100.00;101793.78;5042724;28;45241;-87
2022/07/04 05:55:55;;;;;;;;;2.25;2.25;;;;;19.48;100.00;101788.88;5025504;28;45632;-87
2022/07/04 05:58:21;;;;;;;;;4.00;3.00;;;;;19.52;100.00;101795.72;5025481;28;45295;-88
2022/07/04 06:00:46;;;;;;;;;4.00;2.25;;;;;19.55;100.00;101800.84;5024201;28;45169;-88
2022/07/04 06:03:12;;;;;;;;;3.00;3.00;;;;;19.56;100.00;101794.47;5023807;28;44914;-87
2022/07/04 06:05:37;;;;;;;;;3.25;2.00;;;;;19.78;100.00;101801.56;5050373;28;45204;-88
2022/07/04 06:08:03;;;;;;;;;2.00;2.00;;;;;19.65;100.00;101782.06;5052732;28;44663;-88
2022/07/04 06:10:29;;;;;;;;;2.20;1.80;;;;;19.55;100.00;101790.06;5037517;28;44755;-88
2022/07/04 06:12:55;;;;;;;;;4.00;3.00;;;;;19.88;100.00;101801.59;5025121;28;44933;-88
2022/07/04 06:15:23;;;;;;;;;2.00;2.00;;;;;20.18;100.00;101804.22;5011853;28;45354;-88
2022/07/04 06:17:48;;;;;;;;;4.00;2.40;;;;;20.06;100.00;101801.75;5022466;28;44778;-88
2022/07/04 06:20:22;;;;;;;;;3.00;3.00;;;;;20.09;100.00;101801.50;5021891;28;44742;-88
2022/07/04 06:22:49;;;;;;;;;2.20;2.20;;;;;20.35;100.00;101791.88;5019741;28;44978;-86
2022/07/04 06:25:16;;;;;;;;;2.75;2.75;;;;;20.48;100.00;101800.59;5011496;28;45096;-90
2022/07/04 06:27:43;;;;;;;;;3.00;3.00;;;;;20.62;100.00;101799.31;5029719;28;45222;-88
2022/07/04 06:30:10;;;;;;;;;5.60;2.60;;;;;20.91;100.00;101804.69;5006606;28;44682;-88
2022/07/04 06:32:42;;;;;;;;;3.00;1.60;;;;;20.91;100.00;101806.56;5025240;28;44881;-86
2022/07/04 06:37:52;;;;;;;;;1.40;1.40;;;;;20.33;100.00;101795.72;5030747;28;45330;-89
2022/07/04 06:40:18;;;;;;;;;1.00;1.00;;;;;20.37;100.00;101799.84;5048869;28;44592;-89
2022/07/04 06:42:43;;;;;;;;;1.50;1.50;;;;;20.66;100.00;101806.16;5048955;28;44847;-89
2022/07/04 06:45:09;;;;;;;;;4.00;2.00;;;;;20.74;100.00;101805.41;5050836;28;44923;-89
2022/07/04 06:47:35;;;;;;;;;3.00;2.00;;;;;20.97;100.00;101800.56;5022859;28;44815;-88
2022/07/04 06:50:01;;;;;;;;;2.75;2.75;;;;;21.03;100.00;101806.25;5031345;28;44871;-90
2022/07/04 06:52:26;;;;;;;;;3.00;1.00;;;;;21.31;100.00;101809.06;5011200;28;44936;-87
2022/07/04 06:54:52;;;;;;;;;3.00;3.00;;;;;21.41;100.00;101809.03;5029301;28;46148;-89
2022/07/04 06:57:17;;;;;;;;;3.50;2.00;;;;;21.43;100.00;101816.00;5027860;28;44750;-89
2022/07/04 06:59:43;;;;;;;;;3.00;3.00;;;;;21.52;100.00;101814.28;5025726;28;45267;-89
2022/07/04 07:02:09;;;;;;;;;4.20;2.60;;;;;21.69;100.00;101810.78;5029133;28;44887;-89
2022/07/04 07:04:34;;;;;;;;;3.00;2.00;;;;;21.97;100.00;101816.22;5009402;28;46555;-89
2022/07/04 07:07:00;;;;;;;;;2.25;2.25;;;;;21.80;100.00;101826.81;5025945;28;44700;-89
2022/07/04 07:09:25;;;;;;;;;2.00;2.00;;;;;21.93;100.00;101818.34;5027634;28;44761;-89
2022/07/04 07:11:51;;;;;;;;;3.25;3.25;;;;;22.11;100.00;101821.16;5026258;28;44832;-89
2022/07/04 07:14:16;;;;;;;;;2.25;2.25;;;;;22.32;100.00;101826.28;5025787;28;44976;-89
2022/07/04 07:16:41;;;;;;;;;3.75;3.75;;;;;22.22;100.00;101818.22;5005214;28;44677;-88
2022/07/04 07:19:07;;;;;;;;;3.50;2.50;;;;;22.28;100.00;101819.47;5020342;28;44996;-89
2022/07/04 07:21:32;;;;;;;;;4.00;4.00;;;;;22.36;100.00;101816.00;5005321;28;44778;-89
2022/07/04 07:24:00;;;;;;;;;3.25;3.00;;;;;22.74;100.00;101826.53;5005810;28;47186;-89
2022/07/04 07:26:25;;;;;;;;;6.80;4.40;;;;;22.98;100.00;101825.09;5023318;28;45377;-88
2022/07/04 07:28:51;;;;;;;;;4.00;1.00;;;;;23.03;100.00;101826.31;5007305;28;44759;-89
2022/07/04 07:31:16;;;;;;;;;1.25;1.25;;;;;22.78;100.00;101817.09;5031047;28;44880;-89
2022/07/04 07:33:42;;;;;;;;;4.75;3.25;;;;;22.93;100.00;101833.69;5033527;28;44978;-88
2022/07/04 07:36:07;;;;;;;;;3.00;3.00;;;;;22.85;100.00;101814.59;5029422;28;44741;-89
2022/07/04 07:38:33;;;;;;;;;4.00;3.00;;;;;22.84;100.00;101826.44;5026542;28;45179;-89
2022/07/04 07:41:00;;;;;;;;;3.00;3.00;;;;;22.62;100.00;101818.78;5031255;28;44941;-89
2022/07/04 07:43:26;;;;;;;;;2.80;2.00;;;;;22.81;100.00;101807.78;5012365;28;45212;-89
2022/07/04 07:45:52;;;;;;;;;3.00;3.00;;;;;22.82;100.00;101813.06;5007211;28;44653;-89
2022/07/04 07:48:22;;;;;;;;;2.00;2.00;;;;;22.86;100.00;101813.59;5017858;28;44825;-91
2022/07/04 07:50:47;;;;;;;;;3.20;3.20;;;;;22.54;100.00;101798.75;5019138;28;44917;-91
2022/07/04 07:53:13;;;;;;;;;5.00;3.00;;;;;22.04;100.00;101806.47;5003647;28;45318;-91
2022/07/04 07:55:39;;;;;;;;;1.00;1.00;;;;;21.93;100.00;101801.28;5004942;28;44782;-90
2022/07/04 07:58:04;;;;;;;;;3.50;3.50;;;;;21.97;100.00;101814.34;5042216;28;44806;-90
2022/07/04 08:00:30;;;;;;;;;6.00;2.00;;;;;21.74;100.00;101811.19;5044675;28;44968;-89
2022/07/04 08:05:41;;;;;;;;;5.00;3.00;;;;;21.39;100.00;101808.34;5050769;28;44647;-90
2022/07/04 08:08:09;;;;;;;;;2.25;2.25;;;;;21.45;100.00;101802.34;5047353;28;44696;-91
2022/07/04 08:10:36;;;;;;;;;3.00;3.00;;;;;21.53;100.00;101800.59;5045798;28;44830;-90
2022/07/04 08:13:11;;;;;;;;;3.00;2.40;;;;;21.40;100.00;101807.34;5045123;28;45152;-92
2022/07/04 08:15:50;;;;;;;;;11.20;6.80;;;;;21.16;100.00;101805.09;5039854;28;44825;-92
2022/07/04 08:18:23;;;;;;;;;2.80;2.00;;;;;20.93;100.00;101813.50;5034683;28;44785;-93
2022/07/04 08:20:56;;;;;;;;;3.20;3.20;;;;;20.95;100.00;101807.97;5038137;28;44821;-91
2022/07/04 08:26:47;;;;;;;;;4.20;3.00;;;;;21.22;100.00;101789.13;5044377;28;44790;-89
2022/07/04 08:29:20;;;;;;;;;5.40;2.60;;;;;21.20;100.00;101804.66;5050370;28;44857;-92
2022/07/04 08:31:47;;;;;;;;;3.00;3.00;;;;;21.45;100.00;101803.19;5051891;28;44878;-88
2022/07/04 08:34:46;;;;;;;;;2.40;2.40;;;;;21.60;100.00;101802.72;5051701;28;45076;-90
2022/07/04 08:37:19;;;;;;;;;1.40;1.00;;;;;21.87;100.00;101794.63;5028583;28;44717;-90
2022/07/04 08:40:15;;;;;;;;;3.80;3.80;;;;;22.15;100.00;101790.06;5025399;28;44892;-90
2022/07/04 08:43:01;;;;;;;;;3.00;1.60;;;;;22.51;98.23;101790.94;5048797;28;44750;-90
2022/07/04 08:45:48;;;;;;;;;3.40;2.00;;;;;22.59;97.80;101779.34;5033625;28;45261;-90
2022/07/04 08:48:16;;;;;;;;;2.20;2.20;;;;;22.27;94.00;101788.84;5033775;28;44785;-90
2022/07/04 08:51:06;;;;;;;;;3.80;2.00;;;;;21.98;96.71;101782.72;5030880;28;44829;-89
2022/07/04 08:53:36;;;;;;;;;2.40;2.40;;;;;22.01;97.17;101791.41;5044527;28;44815;-90
2022/07/04 08:58:51;;;;;;;;;2.20;2.20;;;;;22.15;97.55;101776.53;5042343;28;44721;-88
2022/07/04 09:01:17;;;;;;;;;2.20;2.20;;;;;22.17;97.08;101769.09;5023545;28;44710;-88
2022/07/04 09:03:45;;;;;;;;;4.40;3.00;;;;;22.48;96.38;101771.44;5026796;28;44850;-88
2022/07/04 09:06:12;;;;;;;;;1.60;1.60;;;;;22.85;96.49;101773.94;5046623;28;45172;-88
2022/07/04 09:08:41;;;;;;;;;3.20;3.20;;;;;22.80;94.04;101770.88;5045652;28;44765;-88
2022/07/04 09:11:07;;;;;;;;;4.20;4.20;;;;;22.80;95.27;101768.16;5028724;28;44776;-89
2022/07/04 09:13:33;;;;;;;;;3.40;3.40;;;;;22.75;94.55;101770.50;5042638;28;44796;-88
2022/07/04 09:16:00;;;;;;;;;7.25;4.75;;;;;22.81;95.03;101767.13;5043790;28;44992;-88
2022/07/04 09:18:29;;;;;;;;;3.00;3.00;;;;;22.95;93.97;101763.06;5050072;28;44906;-88
2022/07/04 09:20:57;;;;;;;;;3.40;3.20;;;;;23.01;94.05;101757.84;5032814;28;44740;-89
2022/07/04 09:23:32;;;;;;;;;4.80;4.60;;;;;22.97;93.94;101764.59;5046632;28;44953;-89
2022/07/04 09:26:11;;;;;;;;;4.00;4.00;;;;;22.28;95.75;101765.31;5044248;28;45274;-89
2022/07/04 09:28:38;;;;;;;;;5.00;5.00;;;;;21.79;98.64;101762.88;5053831;28;44697;-89
2022/07/04 09:31:26;;;;;;;;;6.20;4.20;;;;;21.49;100.00;101768.59;5038724;28;44736;-87
2022/07/04 09:33:58;;;;;;;;;3.00;3.00;;;;;21.59;99.91;101760.44;5057640;28;44785;-87
2022/07/04 09:36:28;;;;;;;;;4.20;4.20;;;;;21.55;98.29;101771.53;5049628;28;45169;-88
2022/07/04 09:39:18;;;;;;;;;1.60;0.20;;;;;21.54;98.92;101774.41;5028108;28;44790;-88
2022/07/04 09:41:49;;;;;;;;;3.20;3.00;;;;;21.83;98.23;101758.03;5010331;28;44847;-87
2022/07/04 09:44:18;;;;;;;;;4.20;3.40;;;;;22.18;95.78;101751.84;5010746;28;44931;-87
2022/07/04 09:46:43;;;;;;;;;2.80;2.80;;;;;22.44;94.58;101762.78;5007655;28;47008;-88
2022/07/04 09:49:10;;;;;;;;;4.00;3.00;;;;;22.45;91.50;101756.34;5024682;28;45499;-88
2022/07/04 09:51:48;;;;;;;;;2.20;2.20;;;;;22.60;91.91;101747.69;5024866;28;44932;-88
2022/07/04 09:54:21;;;;;;;;;4.00;4.00;;;;;22.72;90.76;101763.50;5020722;28;44671;-86
2022/07/04 09:56:49;;;;;;;;;1.00;1.00;;;;;22.78;89.59;101762.91;5002851;28;45418;-87
2022/07/04 09:59:15;;;;;;;;;3.80;3.80;;;;;22.61;90.50;101763.75;5034396;28;45472;-86
2022/07/04 10:01:40;;;;;;;;;2.50;2.50;;;;;22.49;87.68;101773.16;5029865;28;45179;-86
2022/07/04 10:04:06;;;;;;;;;2.50;2.50;;;;;22.58;89.08;101756.81;5029301;28;45380;-86
2022/07/04 10:06:33;;;;;;;;;3.00;3.00;;;;;22.59;88.03;101757.66;5027247;28;45448;-87
2022/07/04 10:09:14;;;;;;;;;3.80;2.20;;;;;22.63;86.75;101761.78;5022395;28;45342;-86
2022/07/04 10:11:42;;;;;;;;;3.00;2.00;;;;;22.72;86.17;101765.38;5019688;28;44770;-86
2022/07/04 10:14:10;;;;;;;;;3.00;3.00;;;;;22.78;83.18;101762.06;5038184;28;45396;-87
2022/07/04 10:16:38;;;;;;;;;1.20;1.00;;;;;22.81;83.38;101759.00;5024295;28;45197;-88
2022/07/04 10:19:05;;;;;;;;;2.60;1.60;;;;;22.89;83.37;101750.13;5027370;28;44852;-87
2022/07/04 10:21:31;;;;;;;;;3.00;1.00;;;;;22.68;77.97;101753.19;5028259;28;44742;-87
2022/07/04 10:23:57;;;;;;;;;1.20;1.20;;;;;22.71;81.09;101758.25;5026060;28;44886;-87
2022/07/04 10:26:23;;;;;;;;;3.60;2.00;;;;;22.57;77.16;101768.63;5021099;28;45730;-85
2022/07/04 10:28:53;;;;;;;;;2.40;2.40;;;;;22.67;76.45;101765.00;5023593;28;45386;-86
2022/07/04 10:31:22;;;;;;;;;2.00;2.00;;;;;22.81;79.17;101753.59;5043127;28;45352;-86
2022/07/04 10:33:49;;;;;;;;;3.00;3.00;;;;;22.88;81.40;101757.38;5026093;28;44965;-86
2022/07/04 10:36:22;;;;;;;;;4.20;4.20;;;;;22.82;77.50;101764.31;5043235;28;45292;-86
2022/07/04 10:38:50;;;;;;;;;4.00;3.00;;;;;22.68;79.46;101759.44;5023773;28;45424;-85
2022/07/04 10:41:19;;;;;;;;;3.20;2.00;;;;;22.58;79.99;101762.25;5020412;28;44735;-85
2022/07/04 10:43:48;;;;;;;;;2.00;2.00;;;;;22.81;80.52;101754.44;5007218;28;45170;-85
2022/07/04 10:46:13;;;;;;;;;1.40;1.40;;;;;23.12;78.91;101754.03;5003031;28;46985;-85
2022/07/04 10:48:54;;;;;;;;;2.00;1.25;;;;;23.35;76.24;101751.59;5024722;28;44770;-85
2022/07/04 10:51:47;;;;;;;;;4.00;4.00;;;;;23.13;75.66;101755.72;5030549;28;44737;-85
2022/07/04 10:54:19;;;;;;;;;2.60;1.00;;;;;23.19;76.11;101748.81;5056965;28;44684;-84
2022/07/04 10:56:45;;;;;;;;;2.20;2.00;;;;;22.86;77.07;101753.13;5031817;28;45399;-84
2022/07/04 10:59:17;;;;;;;;;3.75;1.00;;;;;22.78;77.43;101741.22;5050819;28;44802;-85
2022/07/04 11:01:48;;;;;;;;;2.00;1.60;;;;;22.93;75.94;101740.69;5050349;28;44776;-84
2022/07/04 11:04:47;;;;;;;;;2.00;2.00;;;;;23.30;76.02;101732.25;5053000;28;44945;-86
2022/07/04 11:07:14;;;;;;;;;1.00;1.00;;;;;23.76;74.63;101751.84;5044190;28;45031;-86
2022/07/04 11:09:42;;;;;;;;;3.00;3.00;;;;;23.74;67.92;101748.41;5043559;28;44740;-86
2022/07/04 11:12:13;;;;;;;;;3.00;2.00;;;;;23.54;68.47;101751.34;5045900;28;45182;-85
2022/07/04 11:14:46;;;;;;;;;2.00;2.00;;;;;23.40;72.48;101753.81;5048733;28;44871;-86
2022/07/04 11:17:32;;;;;;;;;3.00;3.00;;;;;23.46;72.41;101753.19;5053830;28;45615;-85
2022/07/04 11:20:03;;;;;;;;;1.20;1.20;;;;;23.58;73.21;101747.31;5049821;28;44763;-85
2022/07/04 11:22:30;;;;;;;;;2.00;2.00;;;;;23.60;69.65;101745.31;5035605;28;44656;-85
2022/07/04 11:24:56;;;;;;;;;1.20;1.20;;;;;23.77;69.61;101734.53;5023405;28;45191;-86
2022/07/04 11:27:23;;;;;;;;;1.20;1.20;;;;;23.84;69.98;101731.00;5039222;28;45375;-86
2022/07/04 11:29:53;;;;;;;;;2.20;2.20;;;;;24.23;70.75;101737.69;5028591;28;44812;-86
2022/07/04 11:32:20;;;;;;;;;1.40;1.40;;;;;24.34;67.25;101740.09;5022518;28;45374;-86
2022/07/04 11:34:46;;;;;;;;;3.60;3.60;;;;;24.34;66.05;101727.34;5039234;28;44906;-86
2022/07/04 11:37:12;;;;;;;;;3.00;2.75;;;;;24.30;66.84;101733.28;5040292;28;44960;-86
2022/07/04 11:39:38;;;;;;;;;2.20;2.20;;;;;24.37;63.90;101737.06;5022697;28;44724;-86